Muson — UGLB — position and weather

sailwx.info

Track history (hours):
 
Tides and Currents Weather Stations Pressure Air Temp Water Temp Dewpoint Dewpoint Depression Visibility Wind Speed Wind Dir Waves Ship Positions

Muson

Last reported at 2016-Jun-27 13:23 UTC. Time now 2016-Jun-27 15:00 UTC.
Position N 59°59' E 029°45'.

Length 36 m; draft 4.5 m.

Type: Tug. MMSI: 273444990.

Date/timePositionNaut miles runAvg speedWind from/ knotsBaromVisibWave heightAir tempDewpointWater temp
2016-Jun-27 13:23N 59°59' E 029°45'0 0.1
2016-Jun-27 12:26N 59°59' E 029°44'0 0.4
2016-Jun-27 11:31N 59°58' E 029°45'0 0.3
2016-Jun-27 10:33N 59°59' E 029°45'0 0.1
2016-Jun-27 09:33N 59°59' E 029°44'0 0.3
2016-Jun-27 08:33N 59°58' E 029°45'0 0.2
2016-Jun-27 07:31N 59°59' E 029°44'0 0.1
2016-Jun-27 06:33N 59°59' E 029°44'0 0.2
2016-Jun-27 05:30N 59°59' E 029°44'0 0.2
2016-Jun-27 04:33N 59°58' E 029°45'2 2.1
2016-Jun-27 03:33N 59°56' E 029°43'0 0.2
2016-Jun-27 01:14N 59°56' E 029°42'0 0.0
2016-Jun-27 00:33N 59°56' E 029°42'0 0.0
2016-Jun-26 23:33N 59°56' E 029°42'0 0.0
2016-Jun-26 22:33N 59°56' E 029°42'0 0.0
2016-Jun-26 21:33N 59°56' E 029°42'0 0.0
2016-Jun-26 20:27N 59°56' E 029°42'0 0.0
2016-Jun-26 19:28N 59°56' E 029°42'0 0.0
2016-Jun-26 17:14N 59°56' E 029°42'0 0.0
2016-Jun-26 15:22N 59°56' E 029°42'3 1.4
2016-Jun-26 13:33N 59°59' E 029°45'0 0.1
2016-Jun-26 12:33N 59°59' E 029°44'0 0.0
2016-Jun-26 11:30N 59°59' E 029°45'0 0.1
2016-Jun-26 10:26N 59°59' E 029°44'0 0.2
2016-Jun-26 09:33N 59°59' E 029°44'0 0.4
2016-Jun-26 08:33N 59°58' E 029°45'0 0.2
2016-Jun-26 07:33N 59°59' E 029°44'0 0.0
2016-Jun-26 06:29N 59°59' E 029°44'0 0.1
2016-Jun-26 05:33N 59°59' E 029°44'0 0.1
2016-Jun-26 04:30N 59°59' E 029°44'2 1.7
2016-Jun-26 03:33N 59°57' E 029°44'1 0.6
2016-Jun-26 01:33N 59°56' E 029°42'0 0.0
2016-Jun-25 15:04N 59°56' E 029°42'3 1.8
2016-Jun-25 13:33N 59°59' E 029°44'0 0.1
2016-Jun-25 12:33N 59°59' E 029°44'0 0.1
2016-Jun-25 11:33N 59°59' E 029°45'0 0.2
2016-Jun-25 10:32N 59°58' E 029°45'0 0.2
2016-Jun-25 09:20N 59°59' E 029°45'0 0.1
2016-Jun-25 08:33N 59°59' E 029°44'0 0.1
2016-Jun-25 07:33N 59°59' E 029°44'0 0.0
2016-Jun-25 06:33N 59°59' E 029°45'0 0.1
2016-Jun-25 05:30N 59°59' E 029°44'0 0.1
2016-Jun-25 04:27N 59°59' E 029°44'2 2.0
2016-Jun-25 03:33N 59°57' E 029°44'1 0.1
2016-Jun-24 15:32N 59°56' E 029°42'2 1.2
2016-Jun-24 13:33N 59°58' E 029°45'1 0.8
2016-Jun-24 12:33N 59°59' E 029°44'0 0.4
2016-Jun-24 11:28N 59°59' E 029°45'0 0.3
2016-Jun-24 10:27N 59°59' E 029°44'0 0.0
2016-Jun-24 09:27N 59°59' E 029°44'0 0.4
2016-Jun-24 08:33N 59°58' E 029°45'0 0.1
2016-Jun-24 07:33N 59°58' E 029°45'0 0.0
2016-Jun-24 04:33N 59°58' E 029°45'2 1.7
2016-Jun-24 03:33N 59°57' E 029°44'1 0.1
2016-Jun-23 18:28N 59°56' E 029°42'0 0.0
2016-Jun-23 16:24N 59°56' E 029°42'3 1.0
2016-Jun-23 13:33N 59°59' E 029°44'0 0.5
2016-Jun-23 12:33N 59°58' E 029°45'0 0.3
2016-Jun-23 11:31N 59°59' E 029°44'0 0.3
2016-Jun-23 10:33N 59°58' E 029°45'0 0.2
2016-Jun-23 09:10N 59°59' E 029°44'0 0.1
2016-Jun-23 08:29N 59°59' E 029°44'1 0.7
2016-Jun-23 07:33N 59°58' E 029°45'0 0.2
2016-Jun-23 05:33N 59°59' E 029°45'0 0.2
2016-Jun-23 04:20N 59°59' E 029°44'2 2.3
2016-Jun-23 03:33N 59°57' E 029°44'1 1.1
2016-Jun-23 02:33N 59°56' E 029°42'0 0.0
2016-Jun-22 21:33N 59°56' E 029°42'0 0.0
2016-Jun-22 20:33N 59°56' E 029°42'0 0.0
2016-Jun-22 19:32N 59°56' E 029°42'0 0.0
2016-Jun-22 18:16N 59°56' E 029°42'0 0.0
2016-Jun-22 17:31N 59°56' E 029°42'0 0.0
2016-Jun-22 16:32N 59°56' E 029°42'0 0.0
2016-Jun-22 15:26N 59°56' E 029°42'0 0.0
2016-Jun-22 14:33N 59°56' E 029°42'0 0.0
2016-Jun-22 13:32N 59°56' E 029°42'0 0.0
2016-Jun-22 12:33N 59°56' E 029°42'0 0.0
2016-Jun-22 10:24N 59°56' E 029°42'3 0.8
2016-Jun-22 07:04N 59°58' E 029°45'0 0.0
2016-Jun-22 06:12N 59°58' E 029°45'1 0.8
2016-Jun-22 05:31N 59°58' E 029°45'0 0.0
2016-Jun-22 04:23N 59°58' E 029°45'1 1.0
2016-Jun-22 03:33N 59°57' E 029°44'1 0.3
2016-Jun-21 23:33N 59°56' E 029°42'0 0.0
2016-Jun-21 21:26N 59°56' E 029°42'0 0.0
2016-Jun-21 20:33N 59°56' E 029°42'0 0.0
2016-Jun-21 19:13N 59°56' E 029°42'0 0.0
2016-Jun-21 17:21N 59°56' E 029°42'0 0.1
2016-Jun-21 14:29N 59°56' E 029°42'0 0.3
2016-Jun-21 13:33N 59°56' E 029°41'0 0.4
2016-Jun-21 12:28N 59°56' E 029°42'0 0.1
2016-Jun-21 10:26N 59°56' E 029°41'0 0.3
2016-Jun-21 09:24N 59°56' E 029°42'1 0.6
2016-Jun-21 08:29N 59°56' E 029°41'0 0.3
2016-Jun-21 07:31N 59°56' E 029°42'0 0.0
2016-Jun-21 04:33N 59°56' E 029°42'0 0.3
2016-Jun-21 03:07N 59°56' E 029°42'0 0.0
2016-Jun-20 22:12N 59°56' E 029°42'0 0.0
2016-Jun-20 20:14N 59°56' E 029°42'0 0.0
2016-Jun-20 17:06N 59°56' E 029°42'0 0.0
2016-Jun-20 16:33N 59°56' E 029°42'0 0.0
2016-Jun-20 15:33N 59°56' E 029°42'2 1.2
2016-Jun-20 13:31N 59°58' E 029°45'1 0.2
2016-Jun-20 08:34N 59°59' E 029°44'1 1.0
2016-Jun-20 07:33N 59°58' E 029°45'1 0.7
2016-Jun-20 06:10N 59°59' E 029°44'0 0.1
2016-Jun-20 05:29N 59°59' E 029°44'1 1.0
2016-Jun-20 04:32N 59°58' E 029°45'2 2.1
2016-Jun-20 03:33N 59°56' E 029°43'0 0.0
2016-Jun-19 22:07N 59°56' E 029°42'0 0.0
2016-Jun-19 20:24N 59°56' E 029°42'0 0.0
2016-Jun-19 19:33N 59°56' E 029°42'0 0.0
2016-Jun-19 15:06N 59°56' E 029°42'0 0.4
2016-Jun-19 14:12N 59°56' E 029°42'2 0.9
2016-Jun-19 11:33N 59°58' E 029°45'0 0.0
2016-Jun-19 10:14N 59°58' E 029°45'0 0.4
2016-Jun-19 09:21N 59°58' E 029°45'0 0.1
2016-Jun-19 08:31N 59°58' E 029°45'0 0.4
2016-Jun-19 07:34N 59°58' E 029°45'0 0.4
2016-Jun-19 06:25N 59°58' E 029°45'0 0.6
2016-Jun-19 05:32N 59°58' E 029°45'1 0.5
2016-Jun-19 04:24N 59°59' E 029°45'1 1.5
2016-Jun-19 03:33N 59°57' E 029°44'1 0.3
2016-Jun-18 23:29N 59°56' E 029°42'0 0.0
2016-Jun-18 18:26N 59°56' E 029°42'0 0.0
2016-Jun-18 17:33N 59°56' E 029°42'0 0.0
2016-Jun-18 16:31N 59°56' E 029°42'2 1.0
2016-Jun-18 14:10N 59°58' E 029°45'0 0.2
2016-Jun-18 13:33N 59°58' E 029°45'0 0.2
2016-Jun-18 11:23N 59°59' E 029°44'1 0.7
2016-Jun-18 10:33N 59°58' E 029°45'0 0.1
2016-Jun-18 09:22N 59°58' E 029°45'1 0.9
2016-Jun-18 08:33N 59°57' E 029°44'0 0.4
2016-Jun-18 07:32N 59°58' E 029°45'0 0.2
2016-Jun-18 06:33N 59°58' E 029°44'1 0.5
2016-Jun-18 05:28N 59°58' E 029°45'0 0.3
2016-Jun-18 04:18N 59°59' E 029°45'2 2.2
2016-Jun-18 03:33N 59°57' E 029°44'1 0.8
2016-Jun-18 02:17N 59°56' E 029°42'0 0.0
2016-Jun-17 16:25N 59°56' E 029°42'2 0.8
2016-Jun-17 13:28N 59°58' E 029°45'  
Track history (hours):
 
Tides and Currents Weather Stations Pressure Air Temp Water Temp Dewpoint Dewpoint Depression Visibility Wind Speed Wind Dir Waves Ship Positions

Muson

Last reported at 2016-Jun-27 13:23 UTC. Time now 2016-Jun-27 15:00 UTC.
Position N 59°59' E 029°45'.

Length 36 m; draft 4.5 m.

Type: Tug. MMSI: 273444990.

Date/timePositionNaut miles runAvg speedWind from/ knotsBaromVisibWave heightAir tempDewpointWater temp
2016-Jun-27 13:23N 59°59' E 029°45'0 0.1
2016-Jun-27 12:26N 59°59' E 029°44'0 0.4
2016-Jun-27 11:31N 59°58' E 029°45'0 0.3
2016-Jun-27 10:33N 59°59' E 029°45'0 0.1
2016-Jun-27 09:33N 59°59' E 029°44'0 0.3
2016-Jun-27 08:33N 59°58' E 029°45'0 0.2
2016-Jun-27 07:31N 59°59' E 029°44'0 0.1
2016-Jun-27 06:33N 59°59' E 029°44'0 0.2
2016-Jun-27 05:30N 59°59' E 029°44'0 0.2
2016-Jun-27 04:33N 59°58' E 029°45'2 2.1
2016-Jun-27 03:33N 59°56' E 029°43'0 0.2
2016-Jun-27 01:14N 59°56' E 029°42'0 0.0
2016-Jun-27 00:33N 59°56' E 029°42'0 0.0
2016-Jun-26 23:33N 59°56' E 029°42'0 0.0
2016-Jun-26 22:33N 59°56' E 029°42'0 0.0
2016-Jun-26 21:33N 59°56' E 029°42'0 0.0
2016-Jun-26 20:27N 59°56' E 029°42'0 0.0
2016-Jun-26 19:28N 59°56' E 029°42'0 0.0
2016-Jun-26 17:14N 59°56' E 029°42'0 0.0
2016-Jun-26 15:22N 59°56' E 029°42'3 1.4
2016-Jun-26 13:33N 59°59' E 029°45'0 0.1
2016-Jun-26 12:33N 59°59' E 029°44'0 0.0
2016-Jun-26 11:30N 59°59' E 029°45'0 0.1
2016-Jun-26 10:26N 59°59' E 029°44'0 0.2
2016-Jun-26 09:33N 59°59' E 029°44'0 0.4
2016-Jun-26 08:33N 59°58' E 029°45'0 0.2
2016-Jun-26 07:33N 59°59' E 029°44'0 0.0
2016-Jun-26 06:29N 59°59' E 029°44'0 0.1
2016-Jun-26 05:33N 59°59' E 029°44'0 0.1
2016-Jun-26 04:30N 59°59' E 029°44'2 1.7
2016-Jun-26 03:33N 59°57' E 029°44'1 0.6
2016-Jun-26 01:33N 59°56' E 029°42'0 0.0
2016-Jun-25 15:04N 59°56' E 029°42'3 1.8
2016-Jun-25 13:33N 59°59' E 029°44'0 0.1
2016-Jun-25 12:33N 59°59' E 029°44'0 0.1
2016-Jun-25 11:33N 59°59' E 029°45'0 0.2
2016-Jun-25 10:32N 59°58' E 029°45'0 0.2
2016-Jun-25 09:20N 59°59' E 029°45'0 0.1
2016-Jun-25 08:33N 59°59' E 029°44'0 0.1
2016-Jun-25 07:33N 59°59' E 029°44'0 0.0
2016-Jun-25 06:33N 59°59' E 029°45'0 0.1
2016-Jun-25 05:30N 59°59' E 029°44'0 0.1
2016-Jun-25 04:27N 59°59' E 029°44'2 2.0
2016-Jun-25 03:33N 59°57' E 029°44'1 0.1
2016-Jun-24 15:32N 59°56' E 029°42'2 1.2
2016-Jun-24 13:33N 59°58' E 029°45'1 0.8
2016-Jun-24 12:33N 59°59' E 029°44'0 0.4
2016-Jun-24 11:28N 59°59' E 029°45'0 0.3
2016-Jun-24 10:27N 59°59' E 029°44'0 0.0
2016-Jun-24 09:27N 59°59' E 029°44'0 0.4
2016-Jun-24 08:33N 59°58' E 029°45'0 0.1
2016-Jun-24 07:33N 59°58' E 029°45'0 0.0
2016-Jun-24 04:33N 59°58' E 029°45'2 1.7
2016-Jun-24 03:33N 59°57' E 029°44'1 0.1
2016-Jun-23 18:28N 59°56' E 029°42'0 0.0
2016-Jun-23 16:24N 59°56' E 029°42'3 1.0
2016-Jun-23 13:33N 59°59' E 029°44'0 0.5
2016-Jun-23 12:33N 59°58' E 029°45'0 0.3
2016-Jun-23 11:31N 59°59' E 029°44'0 0.3
2016-Jun-23 10:33N 59°58' E 029°45'0 0.2
2016-Jun-23 09:10N 59°59' E 029°44'0 0.1
2016-Jun-23 08:29N 59°59' E 029°44'1 0.7
2016-Jun-23 07:33N 59°58' E 029°45'0 0.2
2016-Jun-23 05:33N 59°59' E 029°45'0 0.2
2016-Jun-23 04:20N 59°59' E 029°44'2 2.3
2016-Jun-23 03:33N 59°57' E 029°44'1 1.1
2016-Jun-23 02:33N 59°56' E 029°42'0 0.0
2016-Jun-22 21:33N 59°56' E 029°42'0 0.0
2016-Jun-22 20:33N 59°56' E 029°42'0 0.0
2016-Jun-22 19:32N 59°56' E 029°42'0 0.0
2016-Jun-22 18:16N 59°56' E 029°42'0 0.0
2016-Jun-22 17:31N 59°56' E 029°42'0 0.0
2016-Jun-22 16:32N 59°56' E 029°42'0 0.0
2016-Jun-22 15:26N 59°56' E 029°42'0 0.0
2016-Jun-22 14:33N 59°56' E 029°42'0 0.0
2016-Jun-22 13:32N 59°56' E 029°42'0 0.0
2016-Jun-22 12:33N 59°56' E 029°42'0 0.0
2016-Jun-22 10:24N 59°56' E 029°42'3 0.8
2016-Jun-22 07:04N 59°58' E 029°45'0 0.0
2016-Jun-22 06:12N 59°58' E 029°45'1 0.8
2016-Jun-22 05:31N 59°58' E 029°45'0 0.0
2016-Jun-22 04:23N 59°58' E 029°45'1 1.0
2016-Jun-22 03:33N 59°57' E 029°44'1 0.3
2016-Jun-21 23:33N 59°56' E 029°42'0 0.0
2016-Jun-21 21:26N 59°56' E 029°42'0 0.0
2016-Jun-21 20:33N 59°56' E 029°42'0 0.0
2016-Jun-21 19:13N 59°56' E 029°42'0 0.0
2016-Jun-21 17:21N 59°56' E 029°42'0 0.1
2016-Jun-21 14:29N 59°56' E 029°42'0 0.3
2016-Jun-21 13:33N 59°56' E 029°41'0 0.4
2016-Jun-21 12:28N 59°56' E 029°42'0 0.1
2016-Jun-21 10:26N 59°56' E 029°41'0 0.3
2016-Jun-21 09:24N 59°56' E 029°42'1 0.6
2016-Jun-21 08:29N 59°56' E 029°41'0 0.3
2016-Jun-21 07:31N 59°56' E 029°42'0 0.0
2016-Jun-21 04:33N 59°56' E 029°42'0 0.3
2016-Jun-21 03:07N 59°56' E 029°42'0 0.0
2016-Jun-20 22:12N 59°56' E 029°42'0 0.0
2016-Jun-20 20:14N 59°56' E 029°42'0 0.0
2016-Jun-20 17:06N 59°56' E 029°42'0 0.0
2016-Jun-20 16:33N 59°56' E 029°42'0 0.0
2016-Jun-20 15:33N 59°56' E 029°42'2 1.2
2016-Jun-20 13:31N 59°58' E 029°45'1 0.2
2016-Jun-20 08:34N 59°59' E 029°44'1 1.0
2016-Jun-20 07:33N 59°58' E 029°45'1 0.7
2016-Jun-20 06:10N 59°59' E 029°44'0 0.1
2016-Jun-20 05:29N 59°59' E 029°44'1 1.0
2016-Jun-20 04:32N 59°58' E 029°45'2 2.1
2016-Jun-20 03:33N 59°56' E 029°43'0 0.0
2016-Jun-19 22:07N 59°56' E 029°42'0 0.0
2016-Jun-19 20:24N 59°56' E 029°42'0 0.0
2016-Jun-19 19:33N 59°56' E 029°42'0 0.0
2016-Jun-19 15:06N 59°56' E 029°42'0 0.4
2016-Jun-19 14:12N 59°56' E 029°42'2 0.9
2016-Jun-19 11:33N 59°58' E 029°45'0 0.0
2016-Jun-19 10:14N 59°58' E 029°45'0 0.4
2016-Jun-19 09:21N 59°58' E 029°45'0 0.1
2016-Jun-19 08:31N 59°58' E 029°45'0 0.4
2016-Jun-19 07:34N 59°58' E 029°45'0 0.4
2016-Jun-19 06:25N 59°58' E 029°45'0 0.6
2016-Jun-19 05:32N 59°58' E 029°45'1 0.5
2016-Jun-19 04:24N 59°59' E 029°45'1 1.5
2016-Jun-19 03:33N 59°57' E 029°44'1 0.3
2016-Jun-18 23:29N 59°56' E 029°42'0 0.0
2016-Jun-18 18:26N 59°56' E 029°42'0 0.0
2016-Jun-18 17:33N 59°56' E 029°42'0 0.0
2016-Jun-18 16:31N 59°56' E 029°42'2 1.0
2016-Jun-18 14:10N 59°58' E 029°45'0 0.2
2016-Jun-18 13:33N 59°58' E 029°45'0 0.2
2016-Jun-18 11:23N 59°59' E 029°44'1 0.7
2016-Jun-18 10:33N 59°58' E 029°45'0 0.1
2016-Jun-18 09:22N 59°58' E 029°45'1 0.9
2016-Jun-18 08:33N 59°57' E 029°44'0 0.4
2016-Jun-18 07:32N 59°58' E 029°45'0 0.2
2016-Jun-18 06:33N 59°58' E 029°44'1 0.5
2016-Jun-18 05:28N 59°58' E 029°45'0 0.3
2016-Jun-18 04:18N 59°59' E 029°45'2 2.2
2016-Jun-18 03:33N 59°57' E 029°44'1 0.8
2016-Jun-18 02:17N 59°56' E 029°42'0 0.0
2016-Jun-17 16:25N 59°56' E 029°42'2 0.8
2016-Jun-17 13:28N 59°58' E 029°45'  

Dump ship's entire track history